createdAt,value
2023-04-11T00:01:24.283Z,9.30
2023-04-11T00:03:51.058Z,9.30
2023-04-11T00:06:17.722Z,9.30
2023-04-11T00:08:44.495Z,9.20
2023-04-11T00:11:11.158Z,9.10
2023-04-11T00:13:37.816Z,8.90
2023-04-11T00:16:04.542Z,8.90
2023-04-11T00:18:31.272Z,8.90
2023-04-11T00:20:57.823Z,8.90
2023-04-11T00:23:24.337Z,8.80
2023-04-11T00:25:50.921Z,8.70
2023-04-11T00:28:17.459Z,8.60
2023-04-11T00:30:44.063Z,8.50
2023-04-11T00:33:10.648Z,8.40
2023-04-11T00:35:39.384Z,8.40
2023-04-11T00:38:06.080Z,8.30
2023-04-11T00:40:32.656Z,8.30
2023-04-11T00:42:59.170Z,8.30
2023-04-11T00:45:25.936Z,8.20
2023-04-11T00:47:53.272Z,8.20
2023-04-11T00:50:22.129Z,8.40
2023-04-11T00:52:49.987Z,8.40
2023-04-11T00:55:16.661Z,8.50
2023-04-11T00:57:43.761Z,8.40
2023-04-11T01:00:11.165Z,8.40
2023-04-11T01:02:43.421Z,8.60
2023-04-11T01:05:10.454Z,8.70
2023-04-11T01:07:37.544Z,8.80
2023-04-11T01:10:05.741Z,8.90
2023-04-11T01:12:32.401Z,9.00
2023-04-11T01:14:59.136Z,8.90
2023-04-11T01:17:25.859Z,8.90
2023-04-11T01:19:52.531Z,8.90
2023-04-11T01:22:21.060Z,8.70
2023-04-11T01:24:47.637Z,8.40
2023-04-11T01:27:14.355Z,8.50
2023-04-11T01:29:41.154Z,8.50
2023-04-11T01:32:08.074Z,8.50
2023-04-11T01:34:35.881Z,8.50
2023-04-11T01:37:02.588Z,8.50
2023-04-11T01:39:29.421Z,8.60
2023-04-11T01:41:57.710Z,8.60
2023-04-11T01:44:25.238Z,8.60
2023-04-11T01:46:51.972Z,8.40
2023-04-11T01:49:18.857Z,8.40
2023-04-11T01:51:45.971Z,8.50
2023-04-11T01:54:12.681Z,8.70
2023-04-11T01:56:39.369Z,8.80
2023-04-11T01:59:06.005Z,8.90
2023-04-11T02:01:32.602Z,9.00
2023-04-11T02:03:59.389Z,9.00
2023-04-11T02:06:27.443Z,9.10
2023-04-11T02:08:54.363Z,9.10
2023-04-11T02:11:21.255Z,9.10
2023-04-11T02:13:47.955Z,9.10
2023-04-11T02:16:18.207Z,9.10
2023-04-11T02:18:45.613Z,9.10
2023-04-11T02:21:12.340Z,9.30
2023-04-11T02:23:38.930Z,9.20
2023-04-11T02:26:05.709Z,9.00
2023-04-11T02:28:32.339Z,9.10
2023-04-11T02:30:59.217Z,9.10
2023-04-11T02:33:26.186Z,8.90
2023-04-11T02:35:52.856Z,8.90
2023-04-11T02:38:19.711Z,8.90
2023-04-11T02:40:46.754Z,9.00
2023-04-11T02:43:13.428Z,9.20
2023-04-11T02:45:39.934Z,8.90
2023-04-11T02:48:06.626Z,9.00
2023-04-11T02:50:33.151Z,9.00
2023-04-11T02:52:59.743Z,9.20
2023-04-11T02:55:27.034Z,9.50
2023-04-11T02:57:53.632Z,9.50
2023-04-11T03:00:20.286Z,9.50
2023-04-11T03:02:46.902Z,9.50
2023-04-11T03:05:13.472Z,9.50
2023-04-11T03:07:40.664Z,9.50
2023-04-11T03:10:07.795Z,9.60
2023-04-11T03:12:34.351Z,9.60
2023-04-11T03:15:01.008Z,9.60
2023-04-11T03:17:27.679Z,9.60
2023-04-11T03:19:54.880Z,9.60
2023-04-11T03:22:21.481Z,9.70
2023-04-11T03:24:49.741Z,9.70
2023-04-11T03:27:16.346Z,9.70
2023-04-11T03:29:42.889Z,9.80
2023-04-11T03:32:09.433Z,9.80
2023-04-11T03:34:36.091Z,9.90
2023-04-11T03:37:02.747Z,10.00
2023-04-11T03:39:29.294Z,9.90
2023-04-11T03:41:55.837Z,9.90
2023-04-11T03:44:22.439Z,9.80
2023-04-11T03:46:49.106Z,10.20
2023-04-11T03:49:15.718Z,10.10
2023-04-11T03:51:42.273Z,10.00
2023-04-11T03:54:08.802Z,10.20
2023-04-11T03:56:35.457Z,9.90
2023-04-11T03:59:01.975Z,9.90
2023-04-11T04:01:28.750Z,9.90
2023-04-11T04:03:55.620Z,10.00
2023-04-11T04:06:22.669Z,10.20
2023-04-11T04:08:49.224Z,10.20
2023-04-11T04:11:15.738Z,10.30
2023-04-11T04:13:42.239Z,10.10
2023-04-11T04:16:09.086Z,10.10
2023-04-11T04:18:36.165Z,10.10
2023-04-11T04:21:03.022Z,10.20
2023-04-11T04:23:29.923Z,10.00
2023-04-11T04:25:58.227Z,9.90
2023-04-11T04:28:26.046Z,9.80
2023-04-11T04:30:54.258Z,9.90
2023-04-11T04:33:21.490Z,10.00
2023-04-11T04:35:48.262Z,10.00
2023-04-11T04:38:17.849Z,9.80
2023-04-11T04:40:44.761Z,9.80
2023-04-11T04:43:18.257Z,9.80
2023-04-11T04:45:45.633Z,9.70
2023-04-11T04:48:15.271Z,9.60
2023-04-11T04:50:41.839Z,9.50
2023-04-11T04:53:08.421Z,9.50
2023-04-11T04:55:35.532Z,9.40
2023-04-11T04:58:02.115Z,9.40
2023-04-11T05:00:28.669Z,9.60
2023-04-11T05:02:55.421Z,9.60
2023-04-11T05:05:22.064Z,9.70
2023-04-11T05:07:48.688Z,9.60
2023-04-11T05:10:15.263Z,9.50
2023-04-11T05:12:41.801Z,9.60
2023-04-11T05:15:11.565Z,9.70
2023-04-11T05:17:38.542Z,9.70
2023-04-11T05:20:06.864Z,9.70
2023-04-11T05:22:33.479Z,9.70
2023-04-11T05:25:00.965Z,9.60
2023-04-11T05:27:27.490Z,9.60
2023-04-11T05:29:54.190Z,9.70
2023-04-11T05:32:20.804Z,9.60
2023-04-11T05:34:56.569Z,9.70
2023-04-11T05:37:24.982Z,9.90
2023-04-11T05:39:52.608Z,10.00
2023-04-11T05:42:19.139Z,9.80
2023-04-11T05:44:45.721Z,9.80
2023-04-11T05:47:12.315Z,10.00
2023-04-11T05:49:38.860Z,10.00
2023-04-11T05:52:05.424Z,10.10
2023-04-11T05:54:32.994Z,11.30
2023-04-11T05:56:59.774Z,10.10
2023-04-11T05:59:28.874Z,10.20
2023-04-11T06:01:55.645Z,10.30
2023-04-11T06:04:22.452Z,10.20
2023-04-11T06:06:49.209Z,10.30
2023-04-11T06:09:17.862Z,10.30
2023-04-11T06:11:44.704Z,10.20
2023-04-11T06:14:11.253Z,10.30
2023-04-11T06:16:38.808Z,10.10
2023-04-11T06:19:05.675Z,10.00
2023-04-11T06:21:32.503Z,9.90
2023-04-11T06:24:07.743Z,10.00
2023-04-11T06:26:34.418Z,10.10
2023-04-11T06:29:03.315Z,10.30
2023-04-11T06:31:29.897Z,10.40
2023-04-11T06:33:56.907Z,10.50
2023-04-11T06:36:23.759Z,10.30
2023-04-11T06:38:50.265Z,10.30
2023-04-11T06:41:16.825Z,10.40
2023-04-11T06:43:43.384Z,10.50
2023-04-11T06:46:10.424Z,10.60
2023-04-11T06:48:37.026Z,10.40
2023-04-11T06:51:03.707Z,10.60
2023-04-11T06:53:30.282Z,10.80
2023-04-11T06:55:57.872Z,10.80
2023-04-11T06:58:24.469Z,10.80
2023-04-11T07:00:51.421Z,10.90
2023-04-11T07:03:18.265Z,10.80
2023-04-11T07:05:44.920Z,10.60
2023-04-11T07:08:11.457Z,10.80
2023-04-11T07:10:37.970Z,11.10
2023-04-11T07:13:04.544Z,11.20
2023-04-11T07:15:31.187Z,11.20
2023-04-11T07:17:57.791Z,11.20
2023-04-11T07:20:24.426Z,11.30
2023-04-11T07:22:50.963Z,11.60
2023-04-11T07:25:18.481Z,11.60
2023-04-11T07:27:46.402Z,12.20
2023-04-11T07:30:13.202Z,12.60
2023-04-11T07:32:39.798Z,12.60
2023-04-11T07:35:06.665Z,12.50
2023-04-11T07:37:33.246Z,12.50
2023-04-11T07:39:59.904Z,12.60
2023-04-11T07:42:26.511Z,12.60
2023-04-11T07:44:53.062Z,12.50
2023-04-11T07:47:19.672Z,13.20
2023-04-11T07:49:46.218Z,13.70
2023-04-11T07:52:14.309Z,13.90
2023-04-11T07:54:41.118Z,13.70
2023-04-11T07:57:07.654Z,13.10
2023-04-11T07:59:34.355Z,13.70
2023-04-11T08:02:04.830Z,15.40
2023-04-11T08:04:32.647Z,15.70
2023-04-11T08:06:59.516Z,15.30
2023-04-11T08:09:27.571Z,14.80
2023-04-11T08:11:54.430Z,14.70
2023-04-11T08:14:21.142Z,14.60
2023-04-11T08:16:47.665Z,14.60
2023-04-11T08:19:14.351Z,16.40
2023-04-11T08:24:08.422Z,18.90
2023-04-11T08:26:35.044Z,19.30
2023-04-11T08:29:02.060Z,18.90
2023-04-11T08:31:28.669Z,18.30
2023-04-11T08:33:57.067Z,18.20
2023-04-11T08:36:25.771Z,18.70
2023-04-11T08:38:55.115Z,18.90
2023-04-11T08:41:21.673Z,17.10
2023-04-11T08:43:48.512Z,16.40
2023-04-11T08:46:15.145Z,15.20
2023-04-11T08:48:41.733Z,14.60
2023-04-11T08:51:08.349Z,14.40
2023-04-11T08:53:36.178Z,14.00
2023-04-11T08:56:03.337Z,13.70
2023-04-11T08:58:30.037Z,13.80
2023-04-11T09:00:56.624Z,13.60
2023-04-11T09:03:23.341Z,13.40
2023-04-11T09:05:49.951Z,13.70
2023-04-11T09:08:17.020Z,14.10
2023-04-11T09:10:45.459Z,13.40
2023-04-11T09:13:20.539Z,13.10
2023-04-11T09:15:47.118Z,13.60
2023-04-11T09:18:32.907Z,13.40
2023-04-11T09:21:01.165Z,13.70
2023-04-11T09:23:27.782Z,14.00
2023-04-11T09:25:54.555Z,14.20
2023-04-11T09:28:21.228Z,15.40
2023-04-11T09:30:55.288Z,17.70
2023-04-11T09:33:23.600Z,19.00
2023-04-11T09:35:51.389Z,19.60
2023-04-11T09:38:31.823Z,19.00
2023-04-11T09:40:58.744Z,18.60
2023-04-11T09:43:25.675Z,17.20
2023-04-11T09:46:09.570Z,15.80
2023-04-11T09:48:46.112Z,13.30
2023-04-11T09:51:15.973Z,14.10
2023-04-11T09:53:50.972Z,14.10
2023-04-11T09:56:17.510Z,15.00
2023-04-11T09:58:44.074Z,16.20
2023-04-11T10:01:10.683Z,17.10
2023-04-11T10:03:38.612Z,17.30
2023-04-11T10:06:31.816Z,17.50
2023-04-11T10:09:09.602Z,16.60
2023-04-11T10:11:36.635Z,16.80
2023-04-11T10:14:03.773Z,17.30
2023-04-11T10:16:33.892Z,16.80
2023-04-11T10:19:04.522Z,16.30
2023-04-11T10:21:31.068Z,16.40
2023-04-11T10:24:16.701Z,16.40
2023-04-11T10:26:55.077Z,16.80
2023-04-11T10:29:33.049Z,17.70
2023-04-11T10:32:14.967Z,18.20
2023-04-11T10:34:51.033Z,18.00
2023-04-11T10:37:30.335Z,18.20
2023-04-11T10:40:00.459Z,18.00
2023-04-11T10:42:31.633Z,17.90
2023-04-11T10:45:16.217Z,17.80
2023-04-11T10:47:42.869Z,17.90
2023-04-11T10:50:28.273Z,19.10
2023-04-11T10:52:55.536Z,18.50
2023-04-11T10:55:22.558Z,18.00
2023-04-11T10:58:08.026Z,18.10
2023-04-11T11:00:46.932Z,18.50
2023-04-11T11:03:17.267Z,19.00
2023-04-11T11:05:43.943Z,18.50
2023-04-11T11:08:10.775Z,18.50
2023-04-11T11:10:38.352Z,18.20
2023-04-11T11:13:05.033Z,17.60
2023-04-11T11:15:36.600Z,17.60
2023-04-11T11:18:07.748Z,18.80
2023-04-11T11:20:35.116Z,18.80
2023-04-11T11:23:02.849Z,18.70
2023-04-11T11:25:29.617Z,18.20
2023-04-11T11:28:14.107Z,17.40
2023-04-11T11:30:49.210Z,17.20
2023-04-11T11:33:17.948Z,16.90
2023-04-11T11:35:46.413Z,17.50
2023-04-11T11:38:13.354Z,17.90
2023-04-11T11:40:39.955Z,17.70
2023-04-11T11:43:07.337Z,17.40
2023-04-11T11:45:33.939Z,17.90
2023-04-11T11:48:01.577Z,18.90
2023-04-11T11:50:30.392Z,18.90
2023-04-11T11:53:26.810Z,18.30
2023-04-11T11:55:53.645Z,19.00
2023-04-11T11:58:20.597Z,19.40
2023-04-11T12:00:48.319Z,19.50
2023-04-11T12:03:18.205Z,19.20
2023-04-11T12:05:45.029Z,18.50
2023-04-11T12:08:11.966Z,18.60
2023-04-11T12:10:47.913Z,19.00
2023-04-11T12:13:16.785Z,19.60
2023-04-11T12:15:44.115Z,19.90
2023-04-11T12:18:10.982Z,20.00
2023-04-11T12:20:37.585Z,20.00
2023-04-11T12:23:04.176Z,19.80
2023-04-11T12:25:31.777Z,19.40
2023-04-11T12:27:58.415Z,18.90
2023-04-11T12:30:24.953Z,18.50
2023-04-11T12:32:51.583Z,17.90
2023-04-11T12:35:18.347Z,17.90
2023-04-11T12:37:45.585Z,18.30
2023-04-11T12:40:12.933Z,18.40
2023-04-11T12:42:53.050Z,18.70
2023-04-11T12:45:20.315Z,18.40
2023-04-11T12:47:47.871Z,18.60
2023-04-11T12:50:14.611Z,18.50
2023-04-11T12:52:41.494Z,17.70
2023-04-11T12:55:09.462Z,17.00
2023-04-11T12:57:36.470Z,17.00
2023-04-11T13:00:07.032Z,17.30
2023-04-11T13:02:42.197Z,17.50
2023-04-11T13:05:10.908Z,17.70
2023-04-11T13:07:37.843Z,17.50
2023-04-11T13:10:07.181Z,17.60
2023-04-11T13:12:39.484Z,17.60
2023-04-11T13:15:07.310Z,17.10
2023-04-11T13:17:33.942Z,16.70
2023-04-11T13:20:00.478Z,16.00
2023-04-11T13:22:27.181Z,15.70
2023-04-11T13:24:53.774Z,15.50
2023-04-11T13:27:22.064Z,15.30
2023-04-11T13:29:48.724Z,15.40
2023-04-11T13:32:15.539Z,15.40
2023-04-11T13:34:42.458Z,15.60
2023-04-11T13:37:10.960Z,15.40
2023-04-11T13:39:37.487Z,15.40
2023-04-11T13:42:04.108Z,15.50
2023-04-11T13:44:30.682Z,15.50
2023-04-11T13:46:57.260Z,15.30
2023-04-11T13:49:23.819Z,15.50
2023-04-11T13:51:50.332Z,15.50
2023-04-11T13:54:16.865Z,15.30
2023-04-11T13:56:43.387Z,15.40
2023-04-11T13:59:09.923Z,15.40
2023-04-11T14:01:36.553Z,15.10
2023-04-11T14:04:03.587Z,15.30
2023-04-11T14:06:30.300Z,15.50
2023-04-11T14:08:56.935Z,15.60
2023-04-11T14:11:23.536Z,15.20
2023-04-11T14:13:50.158Z,15.00
2023-04-11T14:16:16.799Z,15.20
2023-04-11T14:18:44.567Z,14.80
2023-04-11T14:21:11.178Z,15.70
2023-04-11T14:23:37.837Z,14.90
2023-04-11T14:26:04.787Z,14.80
2023-04-11T14:28:31.418Z,14.70
2023-04-11T14:30:58.094Z,14.30
2023-04-11T14:33:24.809Z,14.20
2023-04-11T14:35:51.433Z,14.40
2023-04-11T14:38:18.011Z,14.20
2023-04-11T14:40:44.611Z,14.20
2023-04-11T14:43:11.241Z,14.30
2023-04-11T14:45:37.982Z,14.40
2023-04-11T14:48:04.797Z,14.40
2023-04-11T14:50:31.489Z,14.40
2023-04-11T14:52:58.171Z,14.30
2023-04-11T14:55:24.772Z,14.40
2023-04-11T14:57:52.265Z,14.80
2023-04-11T15:00:19.894Z,14.70
2023-04-11T15:02:48.000Z,14.70
2023-04-11T15:05:16.836Z,14.70
2023-04-11T15:07:44.696Z,14.50
2023-04-11T15:10:11.949Z,14.70
2023-04-11T15:12:38.504Z,14.90
2023-04-11T15:15:05.335Z,15.00
2023-04-11T15:17:34.184Z,14.90
2023-04-11T15:20:00.857Z,14.80
2023-04-11T15:22:27.406Z,14.80
2023-04-11T15:24:54.033Z,14.60
2023-04-11T15:27:20.914Z,14.40
2023-04-11T15:29:47.510Z,14.40
2023-04-11T15:32:14.154Z,14.30
2023-04-11T15:34:41.465Z,14.20
2023-04-11T15:37:11.532Z,14.20
2023-04-11T15:39:38.105Z,14.30
2023-04-11T15:42:04.751Z,14.30
2023-04-11T15:44:31.347Z,14.30
2023-04-11T15:46:57.949Z,14.40
2023-04-11T15:49:24.516Z,14.10
2023-04-11T15:51:51.143Z,14.20
2023-04-11T15:54:17.698Z,14.50
2023-04-11T15:56:44.488Z,14.00
2023-04-11T15:59:12.853Z,14.40
2023-04-11T16:01:40.295Z,14.30
2023-04-11T16:04:07.272Z,14.00
2023-04-11T16:06:33.904Z,14.50
2023-04-11T16:09:00.806Z,14.50
2023-04-11T16:11:27.445Z,14.30
2023-04-11T16:13:54.005Z,14.30
2023-04-11T16:16:20.661Z,14.40
2023-04-11T16:18:47.237Z,14.40
2023-04-11T16:21:14.593Z,14.30
2023-04-11T16:23:44.065Z,14.50
2023-04-11T16:26:10.980Z,14.50
2023-04-11T16:28:37.498Z,14.50
2023-04-11T16:31:04.333Z,15.00
2023-04-11T16:33:30.963Z,14.70
2023-04-11T16:35:57.698Z,14.60
2023-04-11T16:38:24.248Z,14.30
2023-04-11T16:40:50.877Z,14.30
2023-04-11T16:43:17.411Z,14.30
2023-04-11T16:45:44.593Z,14.40
2023-04-11T16:48:11.686Z,14.50
2023-04-11T16:50:38.671Z,14.40
2023-04-11T16:53:05.296Z,14.20
2023-04-11T16:55:31.841Z,14.40
2023-04-11T16:57:58.416Z,14.60
2023-04-11T17:00:25.102Z,14.30
2023-04-11T17:02:51.951Z,14.10
2023-04-11T17:05:18.967Z,14.10
2023-04-11T17:07:45.869Z,14.00
2023-04-11T17:10:12.455Z,14.10
2023-04-11T17:12:38.974Z,13.90
2023-04-11T17:15:08.309Z,13.80
2023-04-11T17:17:35.022Z,14.10
2023-04-11T17:20:09.455Z,14.00
2023-04-11T17:22:36.745Z,13.80
2023-04-11T17:25:04.072Z,13.70
2023-04-11T17:27:30.732Z,13.70
2023-04-11T17:29:57.326Z,13.30
2023-04-11T17:32:23.897Z,13.50
2023-04-11T17:34:50.857Z,13.50
2023-04-11T17:37:17.395Z,13.50
2023-04-11T17:39:43.950Z,15.00
2023-04-11T17:42:13.674Z,14.10
2023-04-11T17:44:40.669Z,11.90
2023-04-11T17:47:07.280Z,12.80
2023-04-11T17:49:33.803Z,13.10
2023-04-11T17:52:00.495Z,13.20
2023-04-11T17:54:27.216Z,13.10
2023-04-11T17:56:54.123Z,13.00
2023-04-11T17:59:21.247Z,12.50
2023-04-11T18:01:47.924Z,13.00
2023-04-11T18:04:15.346Z,12.30
2023-04-11T18:06:42.212Z,12.60
2023-04-11T18:09:09.031Z,12.50
2023-04-11T18:11:36.265Z,11.20
2023-04-11T18:14:02.990Z,12.50
2023-04-11T18:16:29.729Z,12.10
2023-04-11T18:18:56.783Z,11.70
2023-04-11T18:21:23.343Z,11.80
2023-04-11T18:23:49.936Z,14.30
2023-04-11T18:26:16.530Z,11.50
2023-04-11T18:28:43.068Z,11.30
2023-04-11T18:31:09.794Z,11.30
2023-04-11T18:33:38.816Z,11.40
2023-04-11T18:36:07.828Z,11.00
2023-04-11T18:38:34.448Z,10.80
2023-04-11T18:41:06.776Z,10.60
2023-04-11T18:43:34.244Z,10.50
2023-04-11T18:46:01.364Z,10.50
2023-04-11T18:48:28.010Z,10.60
2023-04-11T18:51:01.116Z,10.40
2023-04-11T18:53:29.880Z,10.40
2023-04-11T18:55:56.710Z,9.80
2023-04-11T18:58:25.788Z,10.50
2023-04-11T19:00:53.337Z,10.10
2023-04-11T19:03:20.800Z,10.20
2023-04-11T19:05:48.145Z,10.70
2023-04-11T19:08:14.880Z,10.10
2023-04-11T19:10:41.394Z,10.00
2023-04-11T19:13:08.670Z,9.90
2023-04-11T19:15:35.231Z,9.90
2023-04-11T19:18:02.065Z,9.80
2023-04-11T19:20:29.415Z,9.80
2023-04-11T19:22:56.251Z,10.60
2023-04-11T19:25:22.908Z,6.50
2023-04-11T19:27:51.006Z,9.80
2023-04-11T19:30:17.627Z,9.60
2023-04-11T19:32:47.228Z,10.20
2023-04-11T19:35:14.023Z,9.60
2023-04-11T19:37:40.874Z,9.30
2023-04-11T19:40:07.640Z,9.30
2023-04-11T19:42:36.667Z,9.30
2023-04-11T19:45:04.507Z,9.30
2023-04-11T19:47:31.480Z,9.40
2023-04-11T19:50:00.495Z,9.30
2023-04-11T19:52:27.660Z,9.50
2023-04-11T19:54:54.912Z,9.60
2023-04-11T19:57:22.296Z,9.40
2023-04-11T19:59:48.850Z,9.30
2023-04-11T20:02:16.062Z,9.30
2023-04-11T20:04:44.599Z,9.30
2023-04-11T20:07:11.427Z,9.30
2023-04-11T20:09:38.074Z,9.50
2023-04-11T20:12:06.235Z,9.50
2023-04-11T20:14:32.996Z,9.60
2023-04-11T20:16:59.847Z,9.70
2023-04-11T20:19:32.387Z,9.70
2023-04-11T20:22:00.581Z,9.80
2023-04-11T20:24:27.638Z,9.80
2023-04-11T20:26:54.241Z,10.00
2023-04-11T20:29:21.167Z,10.70
2023-04-11T20:31:47.807Z,10.20
2023-04-11T20:34:14.428Z,10.30
2023-04-11T20:36:41.177Z,10.50
2023-04-11T20:39:07.731Z,10.20
2023-04-11T20:41:34.283Z,10.20
2023-04-11T20:44:00.950Z,10.20
2023-04-11T20:46:29.647Z,10.30
2023-04-11T20:48:56.430Z,10.40
2023-04-11T20:51:23.035Z,10.20
2023-04-11T20:53:49.661Z,9.90
2023-04-11T20:56:16.266Z,9.90
2023-04-11T20:58:42.840Z,10.00
2023-04-11T21:01:09.478Z,10.10
2023-04-11T21:03:38.338Z,10.00
2023-04-11T21:06:07.400Z,10.00
2023-04-11T21:08:35.215Z,10.00
2023-04-11T21:11:02.047Z,10.20
2023-04-11T21:13:28.675Z,9.60
2023-04-11T21:15:55.303Z,10.30
2023-04-11T21:18:21.842Z,10.30
2023-04-11T21:20:48.377Z,10.30
2023-04-11T21:23:15.143Z,10.40
2023-04-11T21:25:41.687Z,10.60
2023-04-11T21:28:08.226Z,10.50
2023-04-11T21:30:34.965Z,10.60
2023-04-11T21:33:01.572Z,10.50
2023-04-11T21:35:28.497Z,10.60
2023-04-11T21:37:55.283Z,10.70
2023-04-11T21:40:21.946Z,10.80
2023-04-11T21:42:48.570Z,10.70
2023-04-11T21:45:15.633Z,10.80
2023-04-11T21:47:42.543Z,10.60
2023-04-11T21:50:09.404Z,10.70
2023-04-11T21:52:35.993Z,10.60
2023-04-11T21:55:02.611Z,10.50
2023-04-11T21:57:31.690Z,10.60
2023-04-11T21:59:58.240Z,10.80
2023-04-11T22:02:25.007Z,10.70
2023-04-11T22:05:05.814Z,10.80
2023-04-11T22:07:48.562Z,10.70
2023-04-11T22:10:15.837Z,10.70
2023-04-11T22:12:45.395Z,10.80
2023-04-11T22:15:12.682Z,10.60
2023-04-11T22:17:42.132Z,10.50
2023-04-11T22:20:09.810Z,10.40
2023-04-11T22:22:36.444Z,10.50
2023-04-11T22:25:03.635Z,10.60
2023-04-11T22:27:34.084Z,10.70
2023-04-11T22:30:02.245Z,10.50
2023-04-11T22:32:30.081Z,10.60
2023-04-11T22:34:56.739Z,10.50
2023-04-11T22:37:23.329Z,10.20
2023-04-11T22:39:49.940Z,10.60
2023-04-11T22:42:16.961Z,10.50
2023-04-11T22:44:43.510Z,10.60
2023-04-11T22:47:16.008Z,10.40
2023-04-11T22:49:42.789Z,10.30
2023-04-11T22:52:10.619Z,10.50
2023-04-11T22:54:38.452Z,10.40
2023-04-11T22:57:05.084Z,10.50
2023-04-11T22:59:31.798Z,10.60
2023-04-11T23:01:58.527Z,10.50
2023-04-11T23:04:25.302Z,10.10
2023-04-11T23:06:52.061Z,10.50
2023-04-11T23:09:18.740Z,10.50
2023-04-11T23:11:46.633Z,10.40
2023-04-11T23:14:14.396Z,10.20
2023-04-11T23:16:41.722Z,10.90
2023-04-11T23:19:09.096Z,9.70
2023-04-11T23:21:36.039Z,10.80
2023-04-11T23:24:02.695Z,10.80
2023-04-11T23:26:29.279Z,11.10
2023-04-11T23:28:56.371Z,10.60
2023-04-11T23:31:23.080Z,10.90
2023-04-11T23:33:49.836Z,11.00
2023-04-11T23:36:16.696Z,11.00
2023-04-11T23:38:43.271Z,11.00
2023-04-11T23:41:10.555Z,11.00
2023-04-11T23:43:37.245Z,10.90
2023-04-11T23:46:03.923Z,11.00
2023-04-11T23:48:30.585Z,11.10
2023-04-11T23:50:57.242Z,11.20
2023-04-11T23:53:23.787Z,11.10
2023-04-11T23:55:50.874Z,11.20
2023-04-11T23:58:17.858Z,11.20
